Big Bear Station Historical Data
Daily Summary for October 16, 2017 Units:  English    Metric   Both
Next Day »
Daily Weekly Monthly Yearly Custom
  High: Low: Average:
Temperature: 73.4 °F 34.9 °F 50.4 °F
Dew Point: 32.6 °F 14.5 °F 24.6 °F
Humidity: 72% 17% 41%
Wind Speed: 4.7mph 0.0mph 0.8mph
Wind Gust: -999.0mph - -
Wind- - West
Pressure: 30.40 in 30.33 in -
Precipitation: 0.00 in    
Historical Graphs
 
 
Tabular Data for October 16, 2017
Time Temperature Dew Point Pressure Wind Wind Speed Wind Gust Humidity Rainfall Rate (Hourly)
00:09 38.5 °F 17.4 °F 30.39 in Calm   -999.0 mph 42% 0 in
00:24 38.1 °F 15.3 °F 30.39 in Calm   -999.0 mph 39% 0 in
00:39 37.9 °F 14.5 °F 30.39 in Calm   -999.0 mph 38% 0 in
00:54 37.9 °F 18.9 °F 30.39 in Calm   -999.0 mph 46% 0 in
01:09 37.9 °F 19.9 °F 30.38 in Calm   -999.0 mph 48% 0 in
01:25 37.0 °F 17.6 °F 30.39 in Calm   -999.0 mph 45% 0 in
01:40 36.9 °F 21.4 °F 30.39 in Calm   -999.0 mph 53% 0 in
01:55 37.0 °F 20.5 °F 30.39 in Calm   -999.0 mph 51% 0 in
02:10 36.7 °F 22.9 °F 30.39 in Calm   -999.0 mph 57% 0 in
02:25 36.1 °F 23.9 °F 30.38 in Calm   -999.0 mph 61% 0 in
02:41 36.1 °F 25.1 °F 30.39 in Calm   -999.0 mph 64% 0 in
02:56 36.1 °F 23.5 °F 30.38 in Calm   -999.0 mph 60% 0 in
03:11 35.6 °F 22.7 °F 30.38 in Calm   -999.0 mph 59% 0 in
03:26 35.8 °F 23.7 °F 30.38 in Calm   -999.0 mph 61% 0 in
03:41 36.0 °F 23.5 °F 30.38 in Calm   -999.0 mph 60% 0 in
03:57 35.6 °F 23.9 °F 30.38 in Calm   -999.0 mph 62% 0 in
04:12 35.6 °F 23.9 °F 30.38 in Calm   -999.0 mph 62% 0 in
04:27 35.6 °F 21.9 °F 30.37 in Calm   -999.0 mph 57% 0 in
04:42 36.0 °F 25.0 °F 30.37 in Calm   -999.0 mph 64% 0 in
04:58 36.0 °F 26.5 °F 30.37 in Calm   -999.0 mph 68% 0 in
05:13 36.0 °F 26.8 °F 30.37 in SSE 1.7 mph -999.0 mph 69% 0 in
05:28 35.6 °F 25.7 °F 30.37 in Calm   -999.0 mph 67% 0 in
05:43 35.2 °F 25.0 °F 30.37 in Calm   -999.0 mph 66% 0 in
05:58 35.1 °F 25.2 °F 30.38 in Calm   -999.0 mph 67% 0 in
06:14 35.1 °F 25.2 °F 30.38 in ESE 1.7 mph -999.0 mph 67% 0 in
06:29 34.9 °F 24.0 °F 30.38 in SSE 1.1 mph -999.0 mph 64% 0 in
06:44 35.1 °F 23.8 °F 30.38 in Calm   -999.0 mph 63% 0 in
06:59 35.2 °F 25.0 °F 30.38 in Calm   -999.0 mph 66% 0 in
07:14 35.2 °F 23.9 °F 30.38 in Calm   -999.0 mph 63% 0 in
07:30 35.4 °F 23.3 °F 30.38 in Calm   -999.0 mph 61% 0 in
07:45 35.6 °F 25.0 °F 30.39 in Calm   -999.0 mph 65% 0 in
08:00 36.1 °F 27.3 °F 30.39 in Calm   -999.0 mph 70% 0 in
08:15 37.6 °F 29.0 °F 30.39 in Calm   -999.0 mph 71% 0 in
08:30 38.1 °F 29.9 °F 30.39 in Calm   -999.0 mph 72% 0 in
08:46 39.2 °F 28.8 °F 30.40 in Calm   -999.0 mph 66% 0 in
09:01 41.7 °F 29.6 °F 30.40 in Calm   -999.0 mph 62% 0 in
09:16 43.5 °F 29.3 °F 30.40 in Calm   -999.0 mph 57% 0 in
09:31 45.7 °F 32.2 °F 30.40 in Calm   -999.0 mph 59% 0 in
09:46 48.2 °F 32.3 °F 30.40 in Calm   -999.0 mph 54% 0 in
10:02 51.3 °F 31.7 °F 30.40 in Calm   -999.0 mph 47% 0 in
10:17 55.0 °F 29.8 °F 30.40 in Calm   -999.0 mph 38% 0 in
10:32 64.0 °F 30.2 °F 30.39 in Calm   -999.0 mph 28% 0 in
10:47 65.7 °F 27.9 °F 30.39 in Calm   -999.0 mph 24% 0 in
11:03 67.6 °F 28.5 °F 30.39 in Calm   -999.0 mph 23% 0 in
11:18 68.7 °F 32.4 °F 30.39 in NNE 2.7 mph -999.0 mph 26% 0 in
11:33 70.0 °F 29.4 °F 30.38 in North 2.2 mph -999.0 mph 22% 0 in
11:48 70.3 °F 31.8 °F 30.38 in NNE 2.2 mph -999.0 mph 24% 0 in
12:04 71.8 °F 30.9 °F 30.37 in NW 4.2 mph -999.0 mph 22% 0 in
12:19 72.3 °F 31.3 °F 30.37 in NW 2.7 mph -999.0 mph 22% 0 in
12:34 72.7 °F 31.7 °F 30.37 in North 3.7 mph -999.0 mph 22% 0 in
12:50 72.5 °F 27.9 °F 30.36 in Calm   -999.0 mph 19% 0 in
13:05 73.0 °F 29.6 °F 30.36 in NE 2.7 mph -999.0 mph 20% 0 in
13:20 73.4 °F 29.9 °F 30.35 in West 3.2 mph -999.0 mph 20% 0 in
13:36 72.5 °F 32.6 °F 30.35 in North 4.2 mph -999.0 mph 23% 0 in
13:51 72.9 °F 29.5 °F 30.35 in NNW 2.7 mph -999.0 mph 20% 0 in
14:07 72.0 °F 29.9 °F 30.34 in WNW 3.7 mph -999.0 mph 21% 0 in
14:22 71.1 °F 32.5 °F 30.34 in NNW 3.7 mph -999.0 mph 24% 0 in
14:37 70.0 °F 30.5 °F 30.34 in NW 3.7 mph -999.0 mph 23% 0 in
14:52 69.8 °F 29.2 °F 30.34 in WNW 3.7 mph -999.0 mph 22% 0 in
15:07 70.5 °F 30.9 °F 30.33 in NW 1.7 mph -999.0 mph 23% 0 in
15:23 70.3 °F 28.5 °F 30.34 in NNW 3.2 mph -999.0 mph 21% 0 in
15:38 70.3 °F 30.7 °F 30.33 in NW 4.7 mph -999.0 mph 23% 0 in
15:53 69.1 °F 28.6 °F 30.33 in WNW 1.7 mph -999.0 mph 22% 0 in
16:09 68.0 °F 27.7 °F 30.33 in NW 3.7 mph -999.0 mph 22% 0 in
16:24 67.3 °F 27.1 °F 30.33 in WNW 2.2 mph -999.0 mph 22% 0 in
16:39 67.1 °F 28.0 °F 30.33 in NW 1.7 mph -999.0 mph 23% 0 in
16:54 66.6 °F 27.6 °F 30.33 in West 1.7 mph -999.0 mph 23% 0 in
17:10 65.8 °F 28.0 °F 30.33 in Calm   -999.0 mph 24% 0 in
17:25 64.8 °F 26.1 °F 30.33 in Calm   -999.0 mph 23% 0 in
17:40 64.0 °F 22.1 °F 30.33 in Calm   -999.0 mph 20% 0 in
17:55 63.1 °F 17.5 °F 30.33 in Calm   -999.0 mph 17% 0 in
18:11 61.2 °F 18.6 °F 30.33 in Calm   -999.0 mph 19% 0 in
18:26 59.4 °F 19.4 °F 30.33 in Calm   -999.0 mph 21% 0 in
18:41 57.2 °F 17.6 °F 30.33 in Calm   -999.0 mph 21% 0 in
18:56 55.6 °F 18.4 °F 30.34 in Calm   -999.0 mph 23% 0 in
19:11 54.3 °F 19.2 °F 30.34 in Calm   -999.0 mph 25% 0 in
19:27 52.7 °F 19.6 °F 30.34 in Calm   -999.0 mph 27% 0 in
19:42 51.1 °F 19.1 °F 30.35 in Calm   -999.0 mph 28% 0 in
19:57 49.8 °F 18.8 °F 30.35 in Calm   -999.0 mph 29% 0 in
20:27 48.0 °F 18.0 °F 30.35 in Calm   -999.0 mph 30% 0 in
20:43 47.3 °F 17.4 °F 30.36 in Calm   -999.0 mph 30% 0 in
20:58 46.2 °F 19.4 °F 30.36 in Calm   -999.0 mph 34% 0 in
21:14 45.7 °F 19.6 °F 30.36 in Calm   -999.0 mph 35% 0 in
21:29 44.8 °F 18.8 °F 30.36 in Calm   -999.0 mph 35% 0 in
21:44 44.1 °F 17.5 °F 30.36 in Calm   -999.0 mph 34% 0 in
21:59 43.5 °F 18.3 °F 30.36 in Calm   -999.0 mph 36% 0 in
22:14 43.0 °F 19.1 °F 30.36 in Calm   -999.0 mph 38% 0 in
22:30 42.3 °F 19.7 °F 30.36 in Calm   -999.0 mph 40% 0 in
22:45 41.9 °F 20.5 °F 30.37 in Calm   -999.0 mph 42% 0 in
23:00 41.4 °F 19.4 °F 30.37 in Calm   -999.0 mph 41% 0 in
23:15 41.0 °F 19.1 °F 30.36 in Calm   -999.0 mph 41% 0 in
23:31 40.8 °F 17.1 °F 30.36 in Calm   -999.0 mph 38% 0 in
23:46 40.3 °F 16.1 °F 30.36 in Calm   -999.0 mph 37% 0 in
Big Bear CA Weather